sensor_id;sensor_type;location;lat;lon;timestamp;P1;durP1;ratioP1;P2;durP2;ratioP2
36547;SDS011;22551;52.206;4.856;2022-07-22T00:01:33;5.43;;;1.40;;
36547;SDS011;22551;52.206;4.856;2022-07-22T00:06:36;5.85;;;1.73;;
36547;SDS011;22551;52.206;4.856;2022-07-22T00:11:40;7.82;;;1.88;;
36547;SDS011;22551;52.206;4.856;2022-07-22T00:16:42;9.38;;;1.27;;
36547;SDS011;22551;52.206;4.856;2022-07-22T00:21:44;4.30;;;1.30;;
36547;SDS011;22551;52.206;4.856;2022-07-22T00:26:48;7.78;;;1.95;;
36547;SDS011;22551;52.206;4.856;2022-07-22T00:31:50;4.90;;;1.83;;
36547;SDS011;22551;52.206;4.856;2022-07-22T00:36:52;11.05;;;2.17;;
36547;SDS011;22551;52.206;4.856;2022-07-22T00:41:55;8.63;;;1.90;;
36547;SDS011;22551;52.206;4.856;2022-07-22T00:46:58;7.77;;;2.20;;
36547;SDS011;22551;52.206;4.856;2022-07-22T00:52:00;5.75;;;2.13;;
36547;SDS011;22551;52.206;4.856;2022-07-22T00:57:04;6.90;;;1.33;;
36547;SDS011;22551;52.206;4.856;2022-07-22T01:02:07;6.20;;;1.65;;
36547;SDS011;22551;52.206;4.856;2022-07-22T01:07:09;8.02;;;1.70;;
36547;SDS011;22551;52.206;4.856;2022-07-22T01:12:13;8.27;;;1.33;;
36547;SDS011;22551;52.206;4.856;2022-07-22T01:17:15;10.65;;;1.55;;
36547;SDS011;22551;52.206;4.856;2022-07-22T01:22:19;6.93;;;1.48;;
36547;SDS011;22551;52.206;4.856;2022-07-22T01:27:22;3.22;;;1.20;;
36547;SDS011;22551;52.206;4.856;2022-07-22T01:32:24;5.38;;;1.88;;
36547;SDS011;22551;52.206;4.856;2022-07-22T01:37:28;3.67;;;1.27;;
36547;SDS011;22551;52.206;4.856;2022-07-22T01:42:30;1.67;;;1.00;;
36547;SDS011;22551;52.206;4.856;2022-07-22T01:47:32;8.27;;;1.27;;
36547;SDS011;22551;52.206;4.856;2022-07-22T01:52:36;4.35;;;1.58;;
36547;SDS011;22551;52.206;4.856;2022-07-22T01:57:38;6.40;;;1.30;;
36547;SDS011;22551;52.206;4.856;2022-07-22T02:02:41;6.43;;;1.13;;
36547;SDS011;22551;52.206;4.856;2022-07-22T02:07:44;6.95;;;1.77;;
36547;SDS011;22551;52.206;4.856;2022-07-22T02:12:46;6.05;;;1.58;;
36547;SDS011;22551;52.206;4.856;2022-07-22T02:17:48;5.57;;;1.30;;
36547;SDS011;22551;52.206;4.856;2022-07-22T02:22:52;6.35;;;1.60;;
36547;SDS011;22551;52.206;4.856;2022-07-22T02:27:54;7.97;;;1.83;;
36547;SDS011;22551;52.206;4.856;2022-07-22T02:32:56;4.47;;;1.63;;
36547;SDS011;22551;52.206;4.856;2022-07-22T02:38:00;7.10;;;1.65;;
36547;SDS011;22551;52.206;4.856;2022-07-22T02:43:02;7.80;;;1.60;;
36547;SDS011;22551;52.206;4.856;2022-07-22T02:48:06;1.92;;;1.30;;
36547;SDS011;22551;52.206;4.856;2022-07-22T02:53:10;7.40;;;1.67;;
36547;SDS011;22551;52.206;4.856;2022-07-22T02:58:12;6.57;;;1.25;;
36547;SDS011;22551;52.206;4.856;2022-07-22T03:03:14;7.78;;;2.33;;
36547;SDS011;22551;52.206;4.856;2022-07-22T03:08:17;5.57;;;1.77;;
36547;SDS011;22551;52.206;4.856;2022-07-22T03:13:19;6.80;;;1.87;;
36547;SDS011;22551;52.206;4.856;2022-07-22T03:18:22;4.63;;;1.67;;
36547;SDS011;22551;52.206;4.856;2022-07-22T03:23:25;4.90;;;1.50;;
36547;SDS011;22551;52.206;4.856;2022-07-22T03:28:27;9.50;;;2.00;;
36547;SDS011;22551;52.206;4.856;2022-07-22T03:33:29;4.20;;;1.42;;
36547;SDS011;22551;52.206;4.856;2022-07-22T03:38:34;9.88;;;2.55;;
36547;SDS011;22551;52.206;4.856;2022-07-22T03:43:36;7.18;;;1.67;;
36547;SDS011;22551;52.206;4.856;2022-07-22T03:48:38;10.10;;;2.40;;
36547;SDS011;22551;52.206;4.856;2022-07-22T03:53:42;4.70;;;1.40;;
36547;SDS011;22551;52.206;4.856;2022-07-22T03:58:44;7.00;;;1.65;;
36547;SDS011;22551;52.206;4.856;2022-07-22T04:03:46;7.65;;;1.77;;
36547;SDS011;22551;52.206;4.856;2022-07-22T04:08:50;5.05;;;1.33;;
36547;SDS011;22551;52.206;4.856;2022-07-22T04:13:52;3.43;;;1.50;;
36547;SDS011;22551;52.206;4.856;2022-07-22T04:18:54;3.75;;;1.20;;
36547;SDS011;22551;52.206;4.856;2022-07-22T04:23:58;4.75;;;1.10;;
36547;SDS011;22551;52.206;4.856;2022-07-22T04:29:00;4.05;;;1.30;;
36547;SDS011;22551;52.206;4.856;2022-07-22T04:34:03;5.63;;;1.67;;
36547;SDS011;22551;52.206;4.856;2022-07-22T04:39:06;3.20;;;1.15;;
36547;SDS011;22551;52.206;4.856;2022-07-22T04:44:08;3.60;;;1.07;;
36547;SDS011;22551;52.206;4.856;2022-07-22T04:49:11;3.25;;;1.33;;
36547;SDS011;22551;52.206;4.856;2022-07-22T04:54:14;10.38;;;1.10;;
36547;SDS011;22551;52.206;4.856;2022-07-22T04:59:16;9.07;;;1.23;;
36547;SDS011;22551;52.206;4.856;2022-07-22T05:04:18;2.03;;;1.77;;
36547;SDS011;22551;52.206;4.856;2022-07-22T05:09:22;6.80;;;0.90;;
36547;SDS011;22551;52.206;4.856;2022-07-22T05:14:27;13.53;;;1.47;;
36547;SDS011;22551;52.206;4.856;2022-07-22T05:19:29;4.78;;;1.02;;
36547;SDS011;22551;52.206;4.856;2022-07-22T05:24:35;7.10;;;1.33;;
36547;SDS011;22551;52.206;4.856;2022-07-22T05:29:38;3.97;;;1.17;;
36547;SDS011;22551;52.206;4.856;2022-07-22T05:34:41;4.22;;;1.30;;
36547;SDS011;22551;52.206;4.856;2022-07-22T05:39:44;3.95;;;1.10;;
36547;SDS011;22551;52.206;4.856;2022-07-22T05:44:46;2.87;;;0.90;;
36547;SDS011;22551;52.206;4.856;2022-07-22T05:49:49;3.40;;;0.90;;
36547;SDS011;22551;52.206;4.856;2022-07-22T05:54:52;2.72;;;0.70;;
36547;SDS011;22551;52.206;4.856;2022-07-22T05:59:56;2.95;;;1.08;;
36547;SDS011;22551;52.206;4.856;2022-07-22T06:10:04;7.15;;;1.10;;
36547;SDS011;22551;52.206;4.856;2022-07-22T06:15:07;2.33;;;1.02;;
36547;SDS011;22551;52.206;4.856;2022-07-22T06:20:10;2.13;;;0.60;;
36547;SDS011;22551;52.206;4.856;2022-07-22T06:25:13;2.45;;;0.80;;
36547;SDS011;22551;52.206;4.856;2022-07-22T06:30:17;4.30;;;1.17;;
36547;SDS011;22551;52.206;4.856;2022-07-22T06:35:20;1.58;;;0.68;;
36547;SDS011;22551;52.206;4.856;2022-07-22T06:40:26;3.08;;;0.43;;
36547;SDS011;22551;52.206;4.856;2022-07-22T06:45:28;3.63;;;0.70;;
36547;SDS011;22551;52.206;4.856;2022-07-22T06:50:30;4.15;;;0.60;;
36547;SDS011;22551;52.206;4.856;2022-07-22T06:55:34;4.07;;;1.35;;
36547;SDS011;22551;52.206;4.856;2022-07-22T07:00:36;2.70;;;0.55;;
36547;SDS011;22551;52.206;4.856;2022-07-22T07:05:39;2.42;;;0.80;;
36547;SDS011;22551;52.206;4.856;2022-07-22T07:10:43;4.95;;;0.60;;
36547;SDS011;22551;52.206;4.856;2022-07-22T07:15:45;7.70;;;1.23;;
36547;SDS011;22551;52.206;4.856;2022-07-22T07:20:47;4.13;;;0.70;;
36547;SDS011;22551;52.206;4.856;2022-07-22T07:25:51;3.20;;;0.65;;
36547;SDS011;22551;52.206;4.856;2022-07-22T07:30:53;1.30;;;0.50;;
36547;SDS011;22551;52.206;4.856;2022-07-22T07:35:56;1.75;;;0.57;;
36547;SDS011;22551;52.206;4.856;2022-07-22T07:40:59;2.90;;;0.70;;
36547;SDS011;22551;52.206;4.856;2022-07-22T07:46:03;2.37;;;0.60;;
36547;SDS011;22551;52.206;4.856;2022-07-22T07:51:05;1.38;;;0.80;;
36547;SDS011;22551;52.206;4.856;2022-07-22T07:56:09;2.45;;;0.80;;
36547;SDS011;22551;52.206;4.856;2022-07-22T08:01:13;3.13;;;0.73;;
36547;SDS011;22551;52.206;4.856;2022-07-22T08:06:15;1.50;;;0.60;;
36547;SDS011;22551;52.206;4.856;2022-07-22T08:11:18;1.10;;;1.00;;
36547;SDS011;22551;52.206;4.856;2022-07-22T08:16:20;2.07;;;0.80;;
36547;SDS011;22551;52.206;4.856;2022-07-22T08:21:23;5.25;;;1.00;;
36547;SDS011;22551;52.206;4.856;2022-07-22T08:26:27;1.88;;;0.75;;
36547;SDS011;22551;52.206;4.856;2022-07-22T08:31:30;1.58;;;1.38;;
36547;SDS011;22551;52.206;4.856;2022-07-22T08:36:34;3.22;;;1.00;;
36547;SDS011;22551;52.206;4.856;2022-07-22T08:41:38;3.53;;;1.13;;
36547;SDS011;22551;52.206;4.856;2022-07-22T08:46:43;2.88;;;1.00;;
36547;SDS011;22551;52.206;4.856;2022-07-22T08:51:47;1.92;;;0.70;;
36547;SDS011;22551;52.206;4.856;2022-07-22T08:56:51;3.20;;;1.63;;
36547;SDS011;22551;52.206;4.856;2022-07-22T09:07:03;6.20;;;0.90;;
36547;SDS011;22551;52.206;4.856;2022-07-22T09:12:10;2.63;;;0.82;;
36547;SDS011;22551;52.206;4.856;2022-07-22T09:17:25;3.45;;;1.05;;
36547;SDS011;22551;52.206;4.856;2022-07-22T09:22:33;2.85;;;1.05;;
36547;SDS011;22551;52.206;4.856;2022-07-22T09:27:42;4.47;;;1.63;;
36547;SDS011;22551;52.206;4.856;2022-07-22T09:32:45;3.13;;;1.70;;
36547;SDS011;22551;52.206;4.856;2022-07-22T09:37:50;4.90;;;2.00;;
36547;SDS011;22551;52.206;4.856;2022-07-22T09:43:00;4.03;;;1.35;;
36547;SDS011;22551;52.206;4.856;2022-07-22T09:48:05;4.20;;;2.90;;
36547;SDS011;22551;52.206;4.856;2022-07-22T09:53:14;5.97;;;2.60;;
36547;SDS011;22551;52.206;4.856;2022-07-22T09:58:20;4.97;;;2.65;;
36547;SDS011;22551;52.206;4.856;2022-07-22T10:03:24;3.28;;;1.98;;
36547;SDS011;22551;52.206;4.856;2022-07-22T10:08:30;2.10;;;1.73;;
36547;SDS011;22551;52.206;4.856;2022-07-22T10:13:35;5.57;;;2.20;;
36547;SDS011;22551;52.206;4.856;2022-07-22T10:18:43;2.40;;;1.70;;
36547;SDS011;22551;52.206;4.856;2022-07-22T10:24:07;1.80;;;1.70;;
36547;SDS011;22551;52.206;4.856;2022-07-22T10:29:29;2.67;;;1.85;;
36547;SDS011;22551;52.206;4.856;2022-07-22T10:34:32;2.95;;;2.38;;
36547;SDS011;22551;52.206;4.856;2022-07-22T10:39:36;4.73;;;2.87;;
36547;SDS011;22551;52.206;4.856;2022-07-22T10:45:13;3.33;;;2.63;;
36547;SDS011;22551;52.206;4.856;2022-07-22T10:55:59;3.67;;;2.60;;
36547;SDS011;22551;52.206;4.856;2022-07-22T11:01:15;6.20;;;2.67;;
36547;SDS011;22551;52.206;4.856;2022-07-22T11:06:24;2.72;;;2.42;;
36547;SDS011;22551;52.206;4.856;2022-07-22T11:11:42;4.47;;;2.63;;
36547;SDS011;22551;52.206;4.856;2022-07-22T11:16:49;3.47;;;2.10;;
36547;SDS011;22551;52.206;4.856;2022-07-22T11:21:54;3.03;;;2.20;;
36547;SDS011;22551;52.206;4.856;2022-07-22T11:27:06;3.05;;;1.95;;
36547;SDS011;22551;52.206;4.856;2022-07-22T11:32:16;3.42;;;1.83;;
36547;SDS011;22551;52.206;4.856;2022-07-22T11:37:22;3.85;;;1.75;;
36547;SDS011;22551;52.206;4.856;2022-07-22T11:42:28;4.07;;;2.00;;
36547;SDS011;22551;52.206;4.856;2022-07-22T11:47:32;1.52;;;1.42;;
36547;SDS011;22551;52.206;4.856;2022-07-22T11:57:45;3.28;;;1.23;;
36547;SDS011;22551;52.206;4.856;2022-07-22T12:02:50;4.82;;;1.50;;
36547;SDS011;22551;52.206;4.856;2022-07-22T12:07:52;7.47;;;1.35;;
36547;SDS011;22551;52.206;4.856;2022-07-22T12:12:57;3.95;;;1.27;;
36547;SDS011;22551;52.206;4.856;2022-07-22T12:18:18;2.55;;;1.60;;
36547;SDS011;22551;52.206;4.856;2022-07-22T12:23:24;6.35;;;1.52;;
36547;SDS011;22551;52.206;4.856;2022-07-22T12:28:27;2.50;;;1.35;;
36547;SDS011;22551;52.206;4.856;2022-07-22T12:33:32;2.07;;;1.20;;
36547;SDS011;22551;52.206;4.856;2022-07-22T12:38:34;7.43;;;1.33;;
36547;SDS011;22551;52.206;4.856;2022-07-22T12:43:37;2.97;;;1.50;;
36547;SDS011;22551;52.206;4.856;2022-07-22T12:48:49;1.50;;;1.37;;
36547;SDS011;22551;52.206;4.856;2022-07-22T12:53:53;5.35;;;1.40;;
36547;SDS011;22551;52.206;4.856;2022-07-22T12:58:55;2.90;;;1.48;;
36547;SDS011;22551;52.206;4.856;2022-07-22T13:04:00;5.25;;;1.23;;
36547;SDS011;22551;52.206;4.856;2022-07-22T13:09:04;2.70;;;1.17;;
36547;SDS011;22551;52.206;4.856;2022-07-22T13:14:08;3.85;;;1.80;;
36547;SDS011;22551;52.206;4.856;2022-07-22T13:19:12;7.20;;;1.90;;
36547;SDS011;22551;52.206;4.856;2022-07-22T13:24:16;2.63;;;1.55;;
36547;SDS011;22551;52.206;4.856;2022-07-22T13:29:18;4.18;;;2.00;;
36547;SDS011;22551;52.206;4.856;2022-07-22T13:34:22;4.22;;;1.90;;
36547;SDS011;22551;52.206;4.856;2022-07-22T13:39:24;2.47;;;1.60;;
36547;SDS011;22551;52.206;4.856;2022-07-22T13:44:26;5.07;;;1.40;;
36547;SDS011;22551;52.206;4.856;2022-07-22T13:49:32;1.65;;;1.35;;
36547;SDS011;22551;52.206;4.856;2022-07-22T13:54:34;2.20;;;1.60;;
36547;SDS011;22551;52.206;4.856;2022-07-22T13:59:37;1.65;;;1.50;;
36547;SDS011;22551;52.206;4.856;2022-07-22T14:09:45;3.67;;;1.95;;
36547;SDS011;22551;52.206;4.856;2022-07-22T14:14:50;4.40;;;2.22;;
36547;SDS011;22551;52.206;4.856;2022-07-22T14:19:53;4.10;;;1.77;;
36547;SDS011;22551;52.206;4.856;2022-07-22T14:24:56;6.45;;;2.08;;
36547;SDS011;22551;52.206;4.856;2022-07-22T14:35:06;3.30;;;2.33;;
36547;SDS011;22551;52.206;4.856;2022-07-22T14:40:09;3.38;;;1.98;;
36547;SDS011;22551;52.206;4.856;2022-07-22T14:45:17;3.33;;;2.65;;
36547;SDS011;22551;52.206;4.856;2022-07-22T14:50:21;4.28;;;2.70;;
36547;SDS011;22551;52.206;4.856;2022-07-22T14:55:23;3.88;;;2.35;;
36547;SDS011;22551;52.206;4.856;2022-07-22T15:00:26;4.53;;;2.45;;
36547;SDS011;22551;52.206;4.856;2022-07-22T15:05:31;4.10;;;2.15;;
36547;SDS011;22551;52.206;4.856;2022-07-22T15:10:34;4.68;;;2.28;;
36547;SDS011;22551;52.206;4.856;2022-07-22T15:15:38;6.70;;;2.58;;
36547;SDS011;22551;52.206;4.856;2022-07-22T15:20:43;4.80;;;2.80;;
36547;SDS011;22551;52.206;4.856;2022-07-22T15:25:48;4.45;;;2.53;;
36547;SDS011;22551;52.206;4.856;2022-07-22T15:30:57;3.92;;;1.92;;
36547;SDS011;22551;52.206;4.856;2022-07-22T15:36:01;2.13;;;1.07;;
36547;SDS011;22551;52.206;4.856;2022-07-22T15:41:07;3.53;;;1.25;;
36547;SDS011;22551;52.206;4.856;2022-07-22T15:46:11;3.20;;;1.10;;
36547;SDS011;22551;52.206;4.856;2022-07-22T15:51:15;4.23;;;1.33;;
36547;SDS011;22551;52.206;4.856;2022-07-22T15:56:18;2.75;;;1.23;;
36547;SDS011;22551;52.206;4.856;2022-07-22T16:01:23;3.00;;;1.40;;
36547;SDS011;22551;52.206;4.856;2022-07-22T16:06:27;3.20;;;1.67;;
36547;SDS011;22551;52.206;4.856;2022-07-22T16:11:29;1.27;;;1.08;;
36547;SDS011;22551;52.206;4.856;2022-07-22T16:16:32;6.43;;;1.25;;
36547;SDS011;22551;52.206;4.856;2022-07-22T16:21:38;1.45;;;0.75;;
36547;SDS011;22551;52.206;4.856;2022-07-22T16:26:40;2.88;;;0.80;;
36547;SDS011;22551;52.206;4.856;2022-07-22T16:31:42;4.07;;;0.98;;
36547;SDS011;22551;52.206;4.856;2022-07-22T16:36:47;4.00;;;1.20;;
36547;SDS011;22551;52.206;4.856;2022-07-22T16:41:49;1.88;;;1.30;;
36547;SDS011;22551;52.206;4.856;2022-07-22T16:46:51;6.78;;;1.10;;
36547;SDS011;22551;52.206;4.856;2022-07-22T16:51:55;1.52;;;1.10;;
36547;SDS011;22551;52.206;4.856;2022-07-22T16:56:57;5.40;;;1.00;;
36547;SDS011;22551;52.206;4.856;2022-07-22T17:02:00;3.30;;;1.00;;
36547;SDS011;22551;52.206;4.856;2022-07-22T17:07:03;2.17;;;0.73;;
36547;SDS011;22551;52.206;4.856;2022-07-22T17:12:06;1.55;;;0.70;;
36547;SDS011;22551;52.206;4.856;2022-07-22T17:17:10;5.28;;;0.85;;
36547;SDS011;22551;52.206;4.856;2022-07-22T17:22:14;3.10;;;0.95;;
36547;SDS011;22551;52.206;4.856;2022-07-22T17:27:19;3.35;;;0.90;;
36547;SDS011;22551;52.206;4.856;2022-07-22T17:32:21;0.85;;;0.60;;
36547;SDS011;22551;52.206;4.856;2022-07-22T17:37:25;3.30;;;0.68;;
36547;SDS011;22551;52.206;4.856;2022-07-22T17:42:27;1.00;;;0.90;;
36547;SDS011;22551;52.206;4.856;2022-07-22T17:47:29;3.42;;;0.95;;
36547;SDS011;22551;52.206;4.856;2022-07-22T17:52:33;2.75;;;0.82;;
36547;SDS011;22551;52.206;4.856;2022-07-22T17:57:38;7.63;;;0.80;;
36547;SDS011;22551;52.206;4.856;2022-07-22T18:02:40;0.80;;;0.60;;
36547;SDS011;22551;52.206;4.856;2022-07-22T18:12:48;3.43;;;0.70;;
36547;SDS011;22551;52.206;4.856;2022-07-22T18:17:50;2.22;;;1.02;;
36547;SDS011;22551;52.206;4.856;2022-07-22T18:22:54;3.42;;;0.80;;
36547;SDS011;22551;52.206;4.856;2022-07-22T18:27:56;6.47;;;1.30;;
36547;SDS011;22551;52.206;4.856;2022-07-22T18:32:58;5.90;;;1.20;;
36547;SDS011;22551;52.206;4.856;2022-07-22T18:38:01;5.05;;;1.20;;
36547;SDS011;22551;52.206;4.856;2022-07-22T18:43:04;4.50;;;1.30;;
36547;SDS011;22551;52.206;4.856;2022-07-22T18:48:06;3.22;;;1.00;;
36547;SDS011;22551;52.206;4.856;2022-07-22T18:53:09;2.60;;;1.38;;
36547;SDS011;22551;52.206;4.856;2022-07-22T18:58:11;2.22;;;1.40;;
36547;SDS011;22551;52.206;4.856;2022-07-22T19:03:14;3.97;;;1.58;;
36547;SDS011;22551;52.206;4.856;2022-07-22T19:08:18;2.17;;;1.30;;
36547;SDS011;22551;52.206;4.856;2022-07-22T19:13:20;3.17;;;1.08;;
36547;SDS011;22551;52.206;4.856;2022-07-22T19:18:22;3.13;;;1.70;;
36547;SDS011;22551;52.206;4.856;2022-07-22T19:23:26;2.08;;;1.23;;
36547;SDS011;22551;52.206;4.856;2022-07-22T19:28:29;3.33;;;1.33;;
36547;SDS011;22551;52.206;4.856;2022-07-22T19:33:31;3.28;;;1.60;;
36547;SDS011;22551;52.206;4.856;2022-07-22T19:38:34;4.43;;;1.50;;
36547;SDS011;22551;52.206;4.856;2022-07-22T19:43:36;3.38;;;1.15;;
36547;SDS011;22551;52.206;4.856;2022-07-22T19:48:39;4.22;;;1.40;;
36547;SDS011;22551;52.206;4.856;2022-07-22T19:53:42;4.03;;;1.58;;
36547;SDS011;22551;52.206;4.856;2022-07-22T19:58:45;1.80;;;1.30;;
36547;SDS011;22551;52.206;4.856;2022-07-22T20:03:47;1.98;;;1.20;;
36547;SDS011;22551;52.206;4.856;2022-07-22T20:08:50;3.20;;;1.30;;
36547;SDS011;22551;52.206;4.856;2022-07-22T20:13:52;4.15;;;1.58;;
36547;SDS011;22551;52.206;4.856;2022-07-22T20:18:54;4.55;;;2.05;;
36547;SDS011;22551;52.206;4.856;2022-07-22T20:23:59;2.00;;;1.63;;
36547;SDS011;22551;52.206;4.856;2022-07-22T20:29:01;4.97;;;1.73;;
36547;SDS011;22551;52.206;4.856;2022-07-22T20:34:04;3.00;;;1.83;;
36547;SDS011;22551;52.206;4.856;2022-07-22T20:39:07;2.13;;;1.67;;
36547;SDS011;22551;52.206;4.856;2022-07-22T20:44:10;2.30;;;1.87;;
36547;SDS011;22551;52.206;4.856;2022-07-22T20:49:12;4.82;;;1.40;;
36547;SDS011;22551;52.206;4.856;2022-07-22T20:54:16;7.30;;;1.85;;
36547;SDS011;22551;52.206;4.856;2022-07-22T20:59:19;4.68;;;1.50;;
36547;SDS011;22551;52.206;4.856;2022-07-22T21:04:21;7.32;;;1.98;;
36547;SDS011;22551;52.206;4.856;2022-07-22T21:09:25;4.68;;;1.48;;
36547;SDS011;22551;52.206;4.856;2022-07-22T21:14:27;1.88;;;0.95;;
36547;SDS011;22551;52.206;4.856;2022-07-22T21:19:29;3.15;;;1.08;;
36547;SDS011;22551;52.206;4.856;2022-07-22T21:24:32;5.50;;;1.70;;
36547;SDS011;22551;52.206;4.856;2022-07-22T21:29:34;1.70;;;1.10;;
36547;SDS011;22551;52.206;4.856;2022-07-22T21:34:37;3.30;;;1.60;;
36547;SDS011;22551;52.206;4.856;2022-07-22T21:39:40;1.52;;;1.20;;
36547;SDS011;22551;52.206;4.856;2022-07-22T21:44:42;3.17;;;1.35;;
36547;SDS011;22551;52.206;4.856;2022-07-22T21:49:44;3.22;;;1.40;;
36547;SDS011;22551;52.206;4.856;2022-07-22T21:54:48;3.38;;;1.70;;
36547;SDS011;22551;52.206;4.856;2022-07-22T21:59:50;4.63;;;1.40;;
36547;SDS011;22551;52.206;4.856;2022-07-22T22:04:52;2.60;;;1.50;;
36547;SDS011;22551;52.206;4.856;2022-07-22T22:09:56;4.68;;;1.60;;
36547;SDS011;22551;52.206;4.856;2022-07-22T22:14:58;2.03;;;1.38;;
36547;SDS011;22551;52.206;4.856;2022-07-22T22:20:00;2.03;;;1.52;;
36547;SDS011;22551;52.206;4.856;2022-07-22T22:25:04;3.08;;;1.30;;
36547;SDS011;22551;52.206;4.856;2022-07-22T22:30:12;1.88;;;1.60;;
36547;SDS011;22551;52.206;4.856;2022-07-22T22:35:16;3.90;;;2.00;;
36547;SDS011;22551;52.206;4.856;2022-07-22T22:40:20;2.35;;;1.60;;
36547;SDS011;22551;52.206;4.856;2022-07-22T22:45:22;2.47;;;1.80;;
36547;SDS011;22551;52.206;4.856;2022-07-22T22:50:25;3.40;;;2.03;;
36547;SDS011;22551;52.206;4.856;2022-07-22T22:55:28;3.33;;;1.95;;
36547;SDS011;22551;52.206;4.856;2022-07-22T23:00:31;9.77;;;2.20;;
36547;SDS011;22551;52.206;4.856;2022-07-22T23:05:33;2.75;;;2.20;;
36547;SDS011;22551;52.206;4.856;2022-07-22T23:10:37;3.17;;;1.48;;
36547;SDS011;22551;52.206;4.856;2022-07-22T23:15:39;4.07;;;1.80;;
36547;SDS011;22551;52.206;4.856;2022-07-22T23:20:42;5.65;;;1.90;;
36547;SDS011;22551;52.206;4.856;2022-07-22T23:25:51;1.88;;;1.52;;
36547;SDS011;22551;52.206;4.856;2022-07-22T23:30:54;3.05;;;2.05;;
36547;SDS011;22551;52.206;4.856;2022-07-22T23:35:57;3.67;;;1.65;;
36547;SDS011;22551;52.206;4.856;2022-07-22T23:41:00;4.28;;;1.85;;
36547;SDS011;22551;52.206;4.856;2022-07-22T23:46:03;3.97;;;1.70;;
36547;SDS011;22551;52.206;4.856;2022-07-22T23:51:06;5.70;;;1.73;;
36547;SDS011;22551;52.206;4.856;2022-07-22T23:56:09;3.55;;;1.98;;
